createdAt,value
2018-06-01T00:00:29.002Z,42.42
2018-06-01T00:02:56.540Z,42.52
2018-06-01T00:05:24.060Z,42.50
2018-06-01T00:07:51.581Z,42.63
2018-06-01T00:10:20.325Z,42.59
2018-06-01T00:12:47.858Z,42.82
2018-06-01T00:15:15.367Z,42.77
2018-06-01T00:17:42.873Z,43.37
2018-06-01T00:20:10.415Z,43.86
2018-06-01T00:22:37.920Z,44.45
2018-06-01T00:25:05.488Z,44.95
2018-06-01T00:27:33.083Z,45.07
2018-06-01T00:30:00.721Z,45.29
2018-06-01T00:32:28.236Z,45.42
2018-06-01T00:34:55.790Z,45.56
2018-06-01T00:37:23.320Z,45.66
2018-06-01T00:39:50.838Z,45.72
2018-06-01T00:42:18.390Z,45.74
2018-06-01T00:44:45.908Z,45.92
2018-06-01T00:47:13.460Z,45.96
2018-06-01T00:49:41.278Z,45.95
2018-06-01T00:52:08.791Z,46.08
2018-06-01T00:54:48.281Z,46.31
2018-06-01T00:57:15.794Z,46.61
2018-06-01T00:59:43.315Z,46.88
2018-06-01T01:02:11.183Z,47.17
2018-06-01T01:04:38.701Z,47.27
2018-06-01T01:07:06.197Z,47.50
2018-06-01T01:09:33.723Z,47.52
2018-06-01T01:12:01.243Z,47.56
2018-06-01T01:14:28.771Z,47.53
2018-06-01T01:16:56.320Z,47.59
2018-06-01T01:19:23.833Z,47.52
2018-06-01T01:21:52.183Z,47.54
2018-06-01T01:24:19.778Z,47.73
2018-06-01T01:26:47.311Z,48.16
2018-06-01T01:29:15.762Z,48.69
2018-06-01T01:31:43.635Z,48.78
2018-06-01T01:34:11.158Z,48.93
2018-06-01T01:36:38.668Z,49.26
2018-06-01T01:39:06.816Z,49.96
2018-06-01T01:41:35.256Z,50.60
2018-06-01T01:44:02.799Z,51.00
2018-06-01T01:46:30.385Z,51.21
2018-06-01T01:48:57.920Z,51.52
2018-06-01T01:51:25.449Z,51.82
2018-06-01T01:53:53.010Z,51.94
2018-06-01T01:56:20.537Z,51.92
2018-06-01T01:58:48.758Z,52.18
2018-06-01T02:01:16.301Z,52.20
2018-06-01T02:03:44.739Z,52.47
2018-06-01T02:06:12.271Z,52.64
2018-06-01T02:08:39.875Z,52.82
2018-06-01T02:11:07.400Z,52.83
2018-06-01T02:13:34.987Z,52.84
2018-06-01T02:16:02.522Z,52.89
2018-06-01T02:18:30.042Z,52.88
2018-06-01T02:20:57.556Z,52.93
2018-06-01T02:23:25.094Z,52.85
2018-06-01T02:25:52.674Z,52.89
2018-06-01T02:28:20.227Z,52.93
2018-06-01T02:30:47.763Z,53.06
2018-06-01T02:33:15.314Z,53.03
2018-06-01T02:35:42.834Z,53.02
2018-06-01T02:38:10.383Z,52.90
2018-06-01T02:40:37.943Z,52.95
2018-06-01T02:43:05.486Z,52.96
2018-06-01T02:45:33.023Z,53.06
2018-06-01T02:48:00.558Z,52.99
2018-06-01T02:50:28.160Z,52.79
2018-06-01T02:52:55.741Z,52.90
2018-06-01T02:55:23.680Z,53.09
2018-06-01T02:57:51.202Z,52.90
2018-06-01T03:00:18.807Z,52.81
2018-06-01T03:02:46.431Z,52.72
2018-06-01T03:05:14.331Z,52.80
2018-06-01T03:07:41.878Z,52.67
2018-06-01T03:10:10.070Z,52.71
2018-06-01T03:12:37.617Z,52.83
2018-06-01T03:15:05.182Z,52.81
2018-06-01T03:17:33.044Z,52.79
2018-06-01T03:20:00.659Z,52.79
2018-06-01T03:22:28.277Z,52.92
2018-06-01T03:24:56.150Z,52.78
2018-06-01T03:27:23.938Z,52.76
2018-06-01T03:29:51.874Z,52.72
2018-06-01T03:32:19.640Z,52.73
2018-06-01T03:34:47.314Z,52.84
2018-06-01T03:37:15.671Z,52.94
2018-06-01T03:39:43.179Z,53.08
2018-06-01T03:42:11.006Z,53.02
2018-06-01T03:44:38.556Z,52.91
2018-06-01T03:47:06.091Z,53.02
2018-06-01T03:49:33.633Z,53.02
2018-06-01T03:52:01.268Z,53.02
2018-06-01T03:54:29.217Z,53.17
2018-06-01T03:56:57.550Z,53.13
2018-06-01T03:59:25.113Z,52.93
2018-06-01T04:01:52.643Z,52.82
2018-06-01T04:04:20.161Z,52.63
2018-06-01T04:06:47.726Z,52.78
2018-06-01T04:09:15.510Z,52.77
2018-06-01T04:11:43.012Z,52.59
2018-06-01T04:14:10.831Z,52.58
2018-06-01T04:16:38.409Z,52.68
2018-06-01T04:19:05.927Z,52.65
2018-06-01T04:21:33.515Z,52.70
2018-06-01T04:24:01.035Z,52.57
2018-06-01T04:26:28.556Z,52.54
2018-06-01T04:28:56.240Z,52.33
2018-06-01T04:31:23.764Z,52.29
2018-06-01T04:33:51.291Z,52.29
2018-06-01T04:36:18.865Z,52.22
2018-06-01T04:38:46.379Z,52.56
2018-06-01T04:41:13.923Z,52.38
2018-06-01T04:43:41.525Z,52.47
2018-06-01T04:46:09.818Z,52.50
2018-06-01T04:48:37.603Z,52.61
2018-06-01T04:51:05.165Z,52.64
2018-06-01T04:53:32.676Z,52.60
2018-06-01T04:56:00.218Z,52.55
2018-06-01T04:58:27.758Z,52.68
2018-06-01T05:00:56.393Z,52.68
2018-06-01T05:03:23.921Z,52.47
2018-06-01T05:05:51.456Z,52.24
2018-06-01T05:08:19.041Z,52.36
2018-06-01T05:10:46.700Z,52.32
2018-06-01T05:13:14.250Z,52.46
2018-06-01T05:15:41.767Z,52.13
2018-06-01T05:18:09.279Z,52.01
2018-06-01T05:20:36.835Z,52.05
2018-06-01T05:23:04.683Z,51.96
2018-06-01T05:25:32.236Z,51.98
2018-06-01T05:27:59.779Z,51.82
2018-06-01T05:30:27.291Z,51.83
2018-06-01T05:32:55.948Z,51.90
2018-06-01T05:35:23.682Z,51.83
2018-06-01T05:37:51.584Z,51.75
2018-06-01T05:40:19.173Z,51.52
2018-06-01T05:42:46.710Z,50.90
2018-06-01T05:45:14.903Z,50.93
2018-06-01T05:47:42.450Z,50.96
2018-06-01T05:50:09.975Z,50.84
2018-06-01T05:52:38.377Z,50.61
2018-06-01T05:55:05.882Z,50.89
2018-06-01T05:57:33.702Z,50.86
2018-06-01T06:00:01.230Z,50.67
2018-06-01T06:02:28.771Z,50.78
2018-06-01T06:04:56.327Z,50.68
2018-06-01T06:07:23.868Z,50.66
2018-06-01T06:09:51.372Z,50.65
2018-06-01T06:12:18.939Z,50.77
2018-06-01T06:14:46.452Z,50.70
2018-06-01T06:17:14.002Z,50.50
2018-06-01T06:19:41.548Z,50.50
2018-06-01T06:22:09.077Z,50.71
2018-06-01T06:24:36.603Z,50.78
2018-06-01T06:27:04.199Z,50.75
2018-06-01T06:29:31.721Z,50.77
2018-06-01T06:31:59.554Z,50.80
2018-06-01T06:34:27.097Z,50.23
2018-06-01T06:36:54.742Z,50.03
2018-06-01T06:39:22.545Z,49.77
2018-06-01T06:41:50.158Z,49.27
2018-06-01T06:44:17.716Z,49.15
2018-06-01T06:46:45.325Z,48.61
2018-06-01T06:49:13.225Z,48.38
2018-06-01T06:51:41.367Z,47.73
2018-06-01T06:54:09.143Z,47.07
2018-06-01T06:56:36.688Z,46.29
2018-06-01T06:59:04.483Z,45.92
2018-06-01T07:01:31.998Z,45.02
2018-06-01T07:04:00.000Z,44.54
2018-06-01T07:06:27.774Z,44.02
2018-06-01T07:08:55.265Z,43.34
2018-06-01T07:11:23.091Z,41.67
2018-06-01T07:13:51.176Z,41.76
2018-06-01T07:16:18.700Z,41.00
2018-06-01T07:18:46.243Z,41.22
2018-06-01T07:21:13.766Z,41.70
2018-06-01T07:23:41.285Z,42.89
2018-06-01T07:26:08.822Z,43.78
2018-06-01T07:28:36.589Z,44.44
2018-06-01T07:31:04.100Z,43.85
2018-06-01T07:33:31.961Z,44.29
2018-06-01T07:35:59.471Z,44.26
2018-06-01T07:38:27.003Z,43.80
2018-06-01T07:40:54.618Z,43.23
2018-06-01T07:43:22.125Z,43.15
2018-06-01T07:45:49.634Z,42.84
2018-06-01T07:48:17.184Z,43.15
2018-06-01T07:50:44.715Z,43.32
2018-06-01T07:53:12.563Z,43.81
2018-06-01T07:55:40.100Z,44.12
2018-06-01T07:58:07.601Z,44.03
2018-06-01T08:00:35.430Z,43.42
2018-06-01T08:03:02.960Z,44.27
2018-06-01T08:05:30.482Z,44.10
2018-06-01T08:07:58.007Z,44.14
2018-06-01T08:10:25.535Z,43.05
2018-06-01T08:12:53.333Z,43.42
2018-06-01T08:15:20.841Z,42.35
2018-06-01T08:17:48.432Z,42.70
2018-06-01T08:20:15.974Z,43.13
2018-06-01T08:22:43.778Z,43.05
2018-06-01T08:25:11.317Z,42.67
2018-06-01T08:27:38.877Z,41.97
2018-06-01T08:30:06.670Z,42.25
2018-06-01T08:32:34.266Z,40.45
2018-06-01T08:35:01.733Z,41.06
2018-06-01T08:37:29.247Z,41.04
2018-06-01T08:39:56.786Z,41.32
2018-06-01T08:42:24.318Z,40.11
2018-06-01T08:44:51.851Z,38.30
2018-06-01T08:47:19.393Z,38.12
2018-06-01T08:49:46.960Z,39.27
2018-06-01T08:52:14.800Z,39.20
2018-06-01T08:54:42.356Z,39.13
2018-06-01T08:57:10.048Z,37.06
2018-06-01T08:59:37.553Z,35.95
2018-06-01T09:02:05.100Z,36.26
2018-06-01T09:04:32.607Z,35.56
2018-06-01T09:07:00.400Z,34.71
2018-06-01T09:09:27.979Z,34.52
2018-06-01T09:11:55.479Z,33.37
2018-06-01T09:14:23.480Z,32.64
2018-06-01T09:16:51.075Z,31.83
2018-06-01T09:19:18.596Z,30.69
2018-06-01T09:21:46.115Z,30.78
2018-06-01T09:24:13.659Z,31.28
2018-06-01T09:26:41.221Z,32.58
2018-06-01T09:29:08.736Z,32.83
2018-06-01T09:31:36.302Z,34.38
2018-06-01T09:34:03.863Z,35.60
2018-06-01T09:36:31.633Z,34.70
2018-06-01T09:38:59.205Z,35.23
2018-06-01T09:41:26.710Z,36.07
2018-06-01T09:43:54.447Z,36.22
2018-06-01T09:46:21.982Z,36.51
2018-06-01T09:48:49.501Z,36.05
2018-06-01T09:51:17.109Z,36.86
2018-06-01T09:53:44.629Z,36.46
2018-06-01T09:56:12.135Z,37.25
2018-06-01T09:58:39.657Z,36.99
2018-06-01T10:01:09.574Z,36.90
2018-06-01T10:03:37.087Z,36.63
2018-06-01T10:06:04.591Z,37.36
2018-06-01T10:08:32.480Z,37.81
2018-06-01T10:11:14.969Z,38.01
2018-06-01T10:13:42.535Z,37.89
2018-06-01T10:16:10.095Z,38.30
2018-06-01T10:18:37.621Z,38.28
2018-06-01T10:21:05.195Z,38.20
2018-06-01T10:23:32.791Z,38.43
2018-06-01T10:26:00.321Z,38.11
2018-06-01T10:28:27.860Z,37.97
2018-06-01T10:30:55.384Z,37.42
2018-06-01T10:33:22.916Z,37.30
2018-06-01T10:35:50.456Z,38.01
2018-06-01T10:38:17.971Z,37.52
2018-06-01T10:40:45.573Z,36.88
2018-06-01T10:43:13.130Z,36.38
2018-06-01T10:45:40.653Z,35.16
2018-06-01T10:48:08.170Z,34.20
2018-06-01T10:50:35.711Z,34.04
2018-06-01T10:53:03.234Z,32.26
2018-06-01T10:55:30.792Z,32.81
2018-06-01T10:57:58.325Z,33.80
2018-06-01T11:00:25.913Z,35.01
2018-06-01T11:02:53.443Z,36.22
2018-06-01T11:05:21.047Z,37.60
2018-06-01T11:07:48.637Z,38.74
2018-06-01T11:10:16.152Z,39.35
2018-06-01T11:12:43.683Z,40.36
2018-06-01T11:15:11.212Z,41.36
2018-06-01T11:17:38.714Z,40.63
2018-06-01T11:20:06.276Z,41.40
2018-06-01T11:22:33.788Z,41.45
2018-06-01T11:25:01.418Z,40.43
2018-06-01T11:27:29.007Z,39.99
2018-06-01T11:29:56.541Z,39.15
2018-06-01T11:32:24.681Z,36.75
2018-06-01T11:34:52.211Z,34.64
2018-06-01T11:37:19.718Z,32.64
2018-06-01T11:39:47.965Z,31.59
2018-06-01T11:42:15.620Z,32.03
2018-06-01T11:44:43.170Z,32.01
2018-06-01T11:47:10.683Z,31.89
2018-06-01T11:49:38.291Z,34.37
2018-06-01T11:52:05.855Z,34.76
2018-06-01T11:54:33.383Z,33.20
2018-06-01T11:57:00.930Z,30.82
2018-06-01T11:59:28.495Z,30.17
2018-06-01T12:01:56.013Z,27.70
2018-06-01T12:04:23.910Z,25.18
2018-06-01T12:06:51.475Z,22.97
2018-06-01T12:09:19.022Z,21.11
2018-06-01T12:11:46.628Z,18.97
2018-06-01T12:14:14.191Z,18.42
2018-06-01T12:16:42.016Z,17.99
2018-06-01T12:19:09.666Z,17.18
2018-06-01T12:21:37.555Z,16.65
2018-06-01T12:24:05.083Z,16.71
2018-06-01T12:26:32.684Z,15.78
2018-06-01T12:29:00.198Z,15.03
2018-06-01T12:31:27.709Z,15.02
2018-06-01T12:33:55.293Z,13.91
2018-06-01T12:36:22.837Z,13.54
2018-06-01T12:38:50.333Z,13.37
2018-06-01T12:41:18.035Z,12.99
2018-06-01T12:43:46.002Z,12.50
2018-06-01T12:46:13.572Z,12.94
2018-06-01T12:48:42.362Z,11.97
2018-06-01T12:51:09.921Z,12.40
2018-06-01T12:53:37.428Z,13.19
2018-06-01T12:56:05.044Z,12.87
2018-06-01T12:58:32.799Z,12.03
2018-06-01T13:01:00.351Z,11.74
2018-06-01T13:03:27.935Z,13.20
2018-06-01T13:05:55.470Z,12.74
2018-06-01T13:08:23.461Z,12.21
2018-06-01T13:10:51.045Z,13.10
2018-06-01T13:13:18.553Z,13.61
2018-06-01T13:15:46.063Z,13.50
2018-06-01T13:18:13.633Z,12.19
2018-06-01T13:20:41.192Z,11.55
2018-06-01T13:23:08.804Z,10.92
2018-06-01T13:25:36.729Z,10.97
2018-06-01T13:28:04.546Z,10.56
2018-06-01T13:30:32.051Z,11.79
2018-06-01T13:32:59.590Z,15.62
2018-06-01T13:35:27.139Z,13.97
2018-06-01T13:37:54.707Z,17.41
2018-06-01T13:40:22.275Z,17.17
2018-06-01T13:42:49.786Z,16.59
2018-06-01T13:45:17.335Z,15.29
2018-06-01T13:47:44.983Z,15.56
2018-06-01T13:50:12.449Z,15.84
2018-06-01T13:52:40.266Z,15.89
2018-06-01T13:55:08.124Z,15.69
2018-06-01T13:57:35.664Z,15.40
2018-06-01T14:00:03.384Z,14.93
2018-06-01T14:02:30.908Z,15.34
2018-06-01T14:04:58.474Z,16.68
2018-06-01T14:07:26.048Z,18.13
2018-06-01T14:09:53.582Z,18.41
2018-06-01T14:12:21.125Z,18.99
2018-06-01T14:14:48.690Z,19.49
2018-06-01T14:17:16.245Z,20.37
2018-06-01T14:19:43.783Z,21.55
2018-06-01T14:22:11.317Z,21.53
2018-06-01T14:24:38.900Z,22.68
2018-06-01T14:27:06.417Z,22.73
2018-06-01T14:29:35.214Z,23.23
2018-06-01T14:32:02.867Z,22.72
2018-06-01T14:34:30.398Z,22.84
2018-06-01T14:36:58.106Z,22.55
2018-06-01T14:39:25.675Z,23.12
2018-06-01T14:41:53.520Z,23.49
2018-06-01T14:44:21.060Z,24.35
2018-06-01T14:46:48.668Z,25.72
2018-06-01T14:49:16.515Z,26.45
2018-06-01T14:51:44.703Z,26.10
2018-06-01T14:54:12.546Z,26.81
2018-06-01T14:56:40.142Z,27.80
2018-06-01T14:59:07.652Z,27.26
2018-06-01T15:01:35.230Z,27.36
2018-06-01T15:04:02.843Z,27.99
2018-06-01T15:06:30.373Z,28.09
2018-06-01T15:08:59.334Z,29.09
2018-06-01T15:11:26.929Z,28.38
2018-06-01T15:13:54.469Z,28.82
2018-06-01T15:16:22.082Z,29.77
2018-06-01T15:18:49.901Z,30.25
2018-06-01T15:21:17.487Z,30.15
2018-06-01T15:23:45.037Z,30.20
2018-06-01T15:26:12.554Z,30.52
2018-06-01T15:28:40.261Z,30.83
2018-06-01T15:31:07.819Z,30.73
2018-06-01T15:33:35.353Z,30.11
2018-06-01T15:36:02.939Z,30.09
2018-06-01T15:38:30.499Z,29.91
2018-06-01T15:40:58.225Z,30.15
2018-06-01T15:43:25.729Z,30.74
2018-06-01T15:45:53.594Z,30.72
2018-06-01T15:48:21.101Z,31.42
2018-06-01T15:50:48.613Z,31.83
2018-06-01T15:53:16.160Z,31.99
2018-06-01T15:55:43.677Z,32.39
2018-06-01T15:58:11.203Z,33.46
2018-06-01T16:00:38.763Z,33.85
2018-06-01T16:03:06.308Z,34.17
2018-06-01T16:05:33.929Z,34.59
2018-06-01T16:08:01.652Z,34.85
2018-06-01T16:10:29.190Z,34.39
2018-06-01T16:12:56.759Z,34.33
2018-06-01T16:15:24.365Z,34.36
2018-06-01T16:17:51.902Z,34.14
2018-06-01T16:20:19.488Z,33.74
2018-06-01T16:22:47.037Z,33.98
2018-06-01T16:25:15.264Z,34.04
2018-06-01T16:27:42.778Z,35.28
2018-06-01T16:30:10.334Z,36.55
2018-06-01T16:32:37.846Z,37.12
2018-06-01T16:35:05.514Z,37.29
2018-06-01T16:37:34.849Z,37.13
2018-06-01T16:40:02.393Z,37.00
2018-06-01T16:42:29.913Z,36.95
2018-06-01T16:44:57.452Z,37.25
2018-06-01T16:47:26.293Z,38.14
2018-06-01T16:49:53.826Z,39.17
2018-06-01T16:52:21.367Z,40.08
2018-06-01T16:54:48.889Z,41.23
2018-06-01T16:57:16.407Z,42.25
2018-06-01T16:59:43.997Z,43.78
2018-06-01T17:02:11.534Z,44.13
2018-06-01T17:04:39.045Z,45.28
2018-06-01T17:07:06.595Z,46.60
2018-06-01T17:09:34.097Z,47.41
2018-06-01T17:12:01.625Z,48.29
2018-06-01T17:14:29.204Z,49.01
2018-06-01T17:16:56.772Z,51.61
2018-06-01T17:19:24.296Z,56.49
2018-06-01T17:21:51.877Z,57.91
2018-06-01T17:24:19.558Z,64.80
2018-06-01T17:26:47.154Z,72.92
2018-06-01T17:29:14.715Z,77.50
2018-06-01T17:31:42.353Z,76.63
2018-06-01T17:34:09.882Z,83.17
2018-06-01T17:36:37.748Z,80.14
2018-06-01T17:39:05.287Z,82.90
2018-06-01T17:41:32.818Z,86.74
2018-06-01T17:44:00.693Z,86.30
2018-06-01T17:46:28.314Z,85.30
2018-06-01T17:48:56.007Z,89.42
2018-06-01T17:51:23.601Z,87.48
2018-06-01T17:53:51.117Z,87.22
2018-06-01T17:56:18.655Z,85.83
2018-06-01T17:58:46.355Z,86.76
2018-06-01T18:01:13.901Z,87.75
2018-06-01T18:03:42.127Z,84.82
2018-06-01T18:06:09.674Z,85.83
2018-06-01T18:08:37.220Z,89.00
2018-06-01T18:11:04.744Z,85.75
2018-06-01T18:13:32.325Z,88.05
2018-06-01T18:15:59.968Z,82.68
2018-06-01T18:18:27.548Z,84.43
2018-06-01T18:20:55.201Z,84.41
2018-06-01T18:23:22.720Z,83.25
2018-06-01T18:25:50.373Z,80.67
2018-06-01T18:28:17.940Z,82.28
2018-06-01T18:30:45.497Z,82.96
2018-06-01T18:33:13.076Z,82.65
2018-06-01T18:35:40.654Z,82.16
2018-06-01T18:38:08.484Z,82.31
2018-06-01T18:40:35.998Z,80.26
2018-06-01T18:43:04.488Z,77.92
2018-06-01T18:45:32.142Z,80.05
2018-06-01T18:48:01.788Z,80.50
2018-06-01T18:50:29.324Z,81.45
2018-06-01T18:52:56.861Z,80.26
2018-06-01T18:55:24.398Z,79.53
2018-06-01T18:57:51.957Z,80.02
2018-06-01T19:00:19.497Z,79.09
2018-06-01T19:02:47.081Z,80.64
2018-06-01T19:05:15.596Z,82.00
2018-06-01T19:07:43.165Z,81.70
2018-06-01T19:10:10.678Z,83.31
2018-06-01T19:12:40.854Z,82.56
2018-06-01T19:15:08.366Z,81.37
2018-06-01T19:17:35.942Z,82.50
2018-06-01T19:20:04.635Z,80.87
2018-06-01T19:22:32.286Z,82.03
2018-06-01T19:25:00.066Z,80.29
2018-06-01T19:27:27.732Z,80.44
2018-06-01T19:29:55.259Z,80.63
2018-06-01T19:32:22.792Z,81.00
2018-06-01T19:34:50.364Z,80.14
2018-06-01T19:37:17.893Z,79.48
2018-06-01T19:39:45.416Z,80.65
2018-06-01T19:42:12.922Z,79.82
2018-06-01T19:44:41.373Z,80.01
2018-06-01T19:47:08.908Z,80.63
2018-06-01T19:49:36.726Z,80.96
2018-06-01T19:52:04.238Z,80.98
2018-06-01T19:54:31.747Z,81.21
2018-06-01T19:56:59.297Z,81.09
2018-06-01T19:59:26.840Z,81.83
2018-06-01T20:01:54.386Z,81.71
2018-06-01T20:04:21.889Z,81.93
2018-06-01T20:06:49.458Z,81.26
2018-06-01T20:09:17.231Z,80.85
2018-06-01T20:11:44.773Z,81.77
2018-06-01T20:14:12.349Z,81.78
2018-06-01T20:16:39.982Z,80.90
2018-06-01T20:19:07.837Z,80.72
2018-06-01T20:21:35.391Z,80.36
2018-06-01T20:24:03.184Z,80.98
2018-06-01T20:26:30.723Z,80.51
2018-06-01T20:28:58.233Z,80.24
2018-06-01T20:31:25.742Z,78.44
2018-06-01T20:33:53.286Z,78.49
2018-06-01T20:36:20.796Z,79.53
2018-06-01T20:38:48.354Z,80.43
2018-06-01T20:41:16.868Z,80.56
2018-06-01T20:43:44.463Z,80.75
2018-06-01T20:46:12.007Z,80.73
2018-06-01T20:48:39.518Z,80.74
2018-06-01T20:51:07.073Z,79.90
2018-06-01T20:53:34.565Z,80.75
2018-06-01T20:56:02.399Z,79.55
2018-06-01T20:58:29.930Z,77.70
2018-06-01T21:00:57.826Z,78.57
2018-06-01T21:03:25.403Z,79.42
2018-06-01T21:05:53.211Z,78.98
2018-06-01T21:08:21.049Z,79.65
2018-06-01T21:10:48.663Z,80.30
2018-06-01T21:13:16.174Z,80.02
2018-06-01T21:15:43.695Z,80.90
2018-06-01T21:18:11.259Z,81.20
2018-06-01T21:20:38.819Z,81.62
2018-06-01T21:23:06.608Z,82.31
2018-06-01T21:25:34.144Z,81.98
2018-06-01T21:28:01.702Z,81.98
2018-06-01T21:30:29.352Z,82.22
2018-06-01T21:32:56.925Z,82.52
2018-06-01T21:35:25.741Z,82.89
2018-06-01T21:37:53.351Z,82.88
2018-06-01T21:40:20.977Z,83.13
2018-06-01T21:42:48.500Z,83.08
2018-06-01T21:45:16.057Z,83.88
2018-06-01T21:47:43.947Z,83.88
2018-06-01T21:50:11.441Z,83.91
2018-06-01T21:52:39.143Z,84.00
2018-06-01T21:55:06.667Z,84.02
2018-06-01T21:57:34.214Z,83.82
2018-06-01T22:00:02.050Z,83.88
2018-06-01T22:02:29.615Z,83.61
2018-06-01T22:04:57.200Z,83.55
2018-06-01T22:07:24.790Z,83.53
2018-06-01T22:09:52.320Z,83.41
2018-06-01T22:12:19.884Z,83.93
2018-06-01T22:14:47.516Z,83.67
2018-06-01T22:17:15.077Z,83.56
2018-06-01T22:19:42.947Z,83.26
2018-06-01T22:22:10.503Z,82.68
2018-06-01T22:24:38.067Z,82.84
2018-06-01T22:27:05.594Z,83.10
2018-06-01T22:29:33.338Z,83.01
2018-06-01T22:32:00.905Z,83.14
2018-06-01T22:34:28.666Z,82.88
2018-06-01T22:36:56.198Z,81.63
2018-06-01T22:39:23.737Z,81.78
2018-06-01T22:41:51.297Z,81.96
2018-06-01T22:44:18.814Z,81.83
2018-06-01T22:46:46.357Z,82.57
2018-06-01T22:49:13.956Z,82.30
2018-06-01T22:51:41.470Z,81.58
2018-06-01T22:54:09.333Z,81.27
2018-06-01T22:56:36.838Z,80.97
2018-06-01T22:59:04.365Z,79.89
2018-06-01T23:01:32.073Z,80.85
2018-06-01T23:03:59.619Z,80.52
2018-06-01T23:06:27.120Z,81.55
2018-06-01T23:08:54.654Z,80.79
2018-06-01T23:11:22.438Z,80.57
2018-06-01T23:13:49.977Z,79.90
2018-06-01T23:16:17.520Z,80.14
2018-06-01T23:18:45.022Z,80.75
2018-06-01T23:21:12.796Z,81.62
2018-06-01T23:23:40.318Z,81.59
2018-06-01T23:26:07.841Z,81.77
2018-06-01T23:28:35.437Z,81.74
2018-06-01T23:31:02.984Z,81.49
2018-06-01T23:33:30.526Z,81.68
2018-06-01T23:35:58.056Z,81.41
2018-06-01T23:38:25.608Z,81.40
2018-06-01T23:40:53.206Z,81.56
2018-06-01T23:43:21.037Z,81.29
2018-06-01T23:45:48.581Z,80.80
2018-06-01T23:48:16.297Z,81.11
2018-06-01T23:50:43.812Z,80.86
2018-06-01T23:53:11.343Z,80.38
2018-06-01T23:55:39.041Z,81.10
2018-06-01T23:58:06.623Z,80.98
